createdAt,value
2022-10-12T00:00:45.441Z,13.59
2022-10-12T00:03:13.287Z,13.68
2022-10-12T00:05:40.223Z,13.68
2022-10-12T00:08:06.990Z,13.61
2022-10-12T00:10:33.797Z,13.80
2022-10-12T00:13:01.016Z,13.75
2022-10-12T00:15:27.727Z,13.72
2022-10-12T00:17:54.375Z,13.68
2022-10-12T00:20:21.016Z,13.57
2022-10-12T00:22:47.613Z,13.56
2022-10-12T00:25:14.341Z,13.68
2022-10-12T00:27:41.002Z,13.60
2022-10-12T00:30:08.208Z,13.65
2022-10-12T00:32:34.801Z,13.63
2022-10-12T00:35:01.516Z,13.69
2022-10-12T00:37:28.162Z,13.71
2022-10-12T00:39:54.769Z,13.55
2022-10-12T00:42:21.406Z,13.58
2022-10-12T00:44:50.208Z,13.57
2022-10-12T00:47:32.948Z,13.57
2022-10-12T00:50:09.739Z,13.61
2022-10-12T00:52:44.848Z,13.65
2022-10-12T00:55:14.744Z,13.66
2022-10-12T00:57:46.717Z,13.70
2022-10-12T01:00:14.063Z,13.64
2022-10-12T01:02:42.368Z,13.75
2022-10-12T01:05:10.124Z,13.64
2022-10-12T01:07:37.056Z,13.69
2022-10-12T01:10:04.504Z,13.75
2022-10-12T01:12:31.471Z,13.80
2022-10-12T01:14:58.299Z,13.75
2022-10-12T01:17:40.751Z,13.73
2022-10-12T01:20:32.421Z,13.82
2022-10-12T01:23:19.700Z,13.80
2022-10-12T01:26:24.221Z,13.71
2022-10-12T01:29:17.924Z,13.85
2022-10-12T01:31:49.933Z,13.71
2022-10-12T01:34:32.408Z,13.75
2022-10-12T01:37:12.457Z,13.75
2022-10-12T01:39:42.725Z,13.76
2022-10-12T01:42:16.508Z,13.80
2022-10-12T01:44:43.192Z,13.77
2022-10-12T01:47:09.874Z,13.70
2022-10-12T01:49:36.821Z,13.65
2022-10-12T01:52:31.149Z,13.76
2022-10-12T01:55:19.684Z,13.77
2022-10-12T01:57:52.433Z,13.75
2022-10-12T02:00:19.479Z,13.72
2022-10-12T02:03:14.468Z,13.72
2022-10-12T02:06:01.432Z,13.67
2022-10-12T02:08:38.449Z,13.72
2022-10-12T02:11:17.741Z,13.75
2022-10-12T02:13:50.138Z,13.63
2022-10-12T02:16:21.197Z,13.65
2022-10-12T02:18:50.834Z,13.52
2022-10-12T02:21:21.108Z,13.57
2022-10-12T02:23:49.481Z,13.44
2022-10-12T02:26:16.602Z,13.28
2022-10-12T02:28:45.147Z,13.31
2022-10-12T02:31:20.746Z,13.39
2022-10-12T02:34:17.555Z,13.36
2022-10-12T02:36:46.308Z,13.29
2022-10-12T02:39:15.724Z,13.26
2022-10-12T02:41:47.199Z,13.21
2022-10-12T02:44:16.483Z,13.26
2022-10-12T02:46:43.462Z,13.15
2022-10-12T02:49:11.506Z,13.27
2022-10-12T02:51:40.752Z,13.24
2022-10-12T02:54:07.882Z,13.30
2022-10-12T02:56:34.509Z,13.27
2022-10-12T02:59:01.130Z,13.29
2022-10-12T03:01:27.824Z,13.39
2022-10-12T03:03:54.509Z,13.33
2022-10-12T03:06:21.244Z,13.00
2022-10-12T03:08:48.071Z,13.05
2022-10-12T03:11:14.841Z,13.03
2022-10-12T03:13:41.485Z,12.96
2022-10-12T03:16:10.112Z,13.19
2022-10-12T03:18:38.801Z,13.30
2022-10-12T03:21:06.109Z,13.29
2022-10-12T03:23:32.790Z,13.44
2022-10-12T03:26:01.425Z,13.34
2022-10-12T03:28:28.101Z,13.36
2022-10-12T03:30:55.343Z,13.46
2022-10-12T03:33:22.177Z,13.22
2022-10-12T03:35:49.009Z,13.32
2022-10-12T03:38:16.579Z,13.24
2022-10-12T03:40:43.744Z,13.42
2022-10-12T03:43:10.728Z,13.39
2022-10-12T03:45:37.793Z,13.37
2022-10-12T03:48:05.437Z,13.43
2022-10-12T03:50:34.932Z,13.55
2022-10-12T03:53:02.929Z,13.58
2022-10-12T03:55:29.556Z,13.45
2022-10-12T03:57:56.160Z,13.43
2022-10-12T04:00:22.872Z,13.30
2022-10-12T04:02:49.492Z,13.32
2022-10-12T04:05:16.154Z,13.34
2022-10-12T04:07:42.829Z,13.39
2022-10-12T04:10:09.626Z,13.33
2022-10-12T04:12:36.370Z,13.20
2022-10-12T04:15:03.065Z,13.15
2022-10-12T04:17:29.669Z,13.24
2022-10-12T04:19:56.357Z,13.20
2022-10-12T04:22:24.808Z,13.23
2022-10-12T04:24:51.480Z,13.32
2022-10-12T04:27:18.138Z,13.29
2022-10-12T04:29:44.850Z,13.31
2022-10-12T04:32:12.733Z,13.41
2022-10-12T04:34:39.900Z,13.35
2022-10-12T04:37:06.701Z,13.39
2022-10-12T04:39:33.402Z,13.38
2022-10-12T04:42:00.046Z,13.33
2022-10-12T04:44:31.261Z,13.39
2022-10-12T04:46:58.998Z,13.42
2022-10-12T04:49:25.621Z,13.36
2022-10-12T04:51:52.235Z,13.19
2022-10-12T04:54:18.867Z,13.20
2022-10-12T04:56:47.960Z,13.23
2022-10-12T04:59:15.144Z,13.25
2022-10-12T05:01:41.901Z,13.26
2022-10-12T05:04:08.626Z,13.19
2022-10-12T05:06:35.271Z,13.07
2022-10-12T05:09:01.944Z,13.17
2022-10-12T05:11:28.584Z,13.18
2022-10-12T05:13:55.212Z,13.16
2022-10-12T05:16:22.122Z,13.10
2022-10-12T05:18:48.787Z,13.00
2022-10-12T05:21:15.662Z,13.17
2022-10-12T05:23:42.284Z,13.19
2022-10-12T05:26:08.925Z,13.10
2022-10-12T05:28:40.597Z,13.02
2022-10-12T05:31:07.760Z,13.19
2022-10-12T05:33:34.385Z,13.20
2022-10-12T05:36:01.006Z,13.19
2022-10-12T05:38:27.650Z,13.06
2022-10-12T05:40:59.208Z,13.03
2022-10-12T05:43:26.860Z,13.14
2022-10-12T05:45:53.449Z,13.12
2022-10-12T05:48:20.176Z,13.08
2022-10-12T05:50:46.872Z,12.98
2022-10-12T05:53:13.753Z,12.80
2022-10-12T05:55:40.420Z,12.88
2022-10-12T05:58:07.052Z,12.83
2022-10-12T06:00:33.684Z,12.74
2022-10-12T06:03:00.298Z,12.73
2022-10-12T06:05:26.912Z,12.86
2022-10-12T06:07:53.524Z,12.85
2022-10-12T06:10:20.190Z,12.96
2022-10-12T06:12:46.837Z,12.98
2022-10-12T06:15:13.493Z,12.85
2022-10-12T06:17:40.171Z,12.80
2022-10-12T06:20:07.343Z,12.94
2022-10-12T06:22:34.106Z,13.07
2022-10-12T06:25:00.999Z,12.82
2022-10-12T06:27:27.629Z,12.91
2022-10-12T06:29:54.222Z,12.89
2022-10-12T06:32:20.912Z,12.96
2022-10-12T06:34:47.536Z,12.66
2022-10-12T06:37:37.123Z,12.69
2022-10-12T06:40:00.836Z,12.84
2022-10-12T06:42:27.457Z,12.90
2022-10-12T06:44:54.361Z,12.92
2022-10-12T06:47:21.051Z,12.94
2022-10-12T06:49:47.737Z,13.05
2022-10-12T06:52:14.469Z,13.04
2022-10-12T06:54:41.524Z,13.16
2022-10-12T06:57:08.200Z,13.16
2022-10-12T06:59:34.852Z,12.98
2022-10-12T07:02:01.572Z,12.89
2022-10-12T07:04:28.282Z,12.77
2022-10-12T07:06:54.968Z,12.83
2022-10-12T07:09:21.625Z,12.79
2022-10-12T07:11:48.221Z,12.85
2022-10-12T07:14:14.852Z,12.72
2022-10-12T07:16:41.497Z,12.78
2022-10-12T07:19:08.115Z,12.84
2022-10-12T07:21:34.735Z,12.90
2022-10-12T07:24:01.370Z,13.03
2022-10-12T07:26:28.187Z,13.08
2022-10-12T07:28:54.837Z,13.15
2022-10-12T07:31:21.525Z,13.01
2022-10-12T07:33:48.162Z,13.11
2022-10-12T07:36:20.579Z,13.20
2022-10-12T07:38:49.077Z,13.23
2022-10-12T07:41:16.015Z,12.84
2022-10-12T07:43:42.784Z,12.96
2022-10-12T07:46:09.818Z,13.03
2022-10-12T07:48:36.565Z,12.89
2022-10-12T07:51:07.631Z,12.97
2022-10-12T07:53:35.013Z,13.10
2022-10-12T07:56:03.194Z,13.09
2022-10-12T07:58:29.882Z,13.17
2022-10-12T08:00:57.217Z,13.05
2022-10-12T08:03:23.821Z,13.12
2022-10-12T08:05:50.445Z,13.20
2022-10-12T08:08:17.077Z,13.23
2022-10-12T08:10:43.737Z,13.25
2022-10-12T08:13:10.351Z,13.33
2022-10-12T08:15:36.983Z,13.33
2022-10-12T08:18:03.723Z,13.28
2022-10-12T08:20:30.349Z,13.41
2022-10-12T08:22:56.953Z,13.46
2022-10-12T08:25:23.625Z,13.40
2022-10-12T08:27:50.224Z,13.43
2022-10-12T08:30:17.048Z,13.44
2022-10-12T08:32:43.678Z,13.48
2022-10-12T08:35:10.286Z,13.66
2022-10-12T08:37:37.122Z,13.23
2022-10-12T08:40:08.137Z,13.28
2022-10-12T08:42:44.651Z,13.43
2022-10-12T08:45:30.657Z,13.44
2022-10-12T08:48:24.637Z,13.62
2022-10-12T08:53:31.244Z,13.73
2022-10-12T08:55:59.127Z,13.15
2022-10-12T08:58:31.595Z,13.10
2022-10-12T09:01:06.396Z,13.21
2022-10-12T09:03:48.084Z,13.50
2022-10-12T09:06:24.762Z,13.39
2022-10-12T09:09:06.715Z,13.76
2022-10-12T09:11:54.364Z,13.79
2022-10-12T09:14:40.018Z,13.75
2022-10-12T09:17:28.560Z,13.90
2022-10-12T09:20:04.969Z,13.89
2022-10-12T09:22:34.616Z,13.66
2022-10-12T09:25:02.653Z,13.66
2022-10-12T09:27:31.168Z,13.96
2022-10-12T09:30:03.757Z,14.07
2022-10-12T09:32:54.849Z,14.16
2022-10-12T09:35:21.565Z,14.16
2022-10-12T09:37:51.434Z,14.23
2022-10-12T09:40:36.412Z,14.21
2022-10-12T09:43:04.002Z,14.10
2022-10-12T09:45:33.706Z,14.24
2022-10-12T09:48:09.021Z,14.21
2022-10-12T09:50:56.375Z,13.92
2022-10-12T09:53:31.985Z,13.95
2022-10-12T09:56:06.269Z,14.18
2022-10-12T09:58:40.400Z,14.01
2022-10-12T10:01:23.811Z,13.85
2022-10-12T10:04:16.710Z,13.70
2022-10-12T10:06:45.817Z,14.04
2022-10-12T10:09:26.427Z,14.21
2022-10-12T10:11:53.498Z,14.14
2022-10-12T10:14:20.292Z,14.13
2022-10-12T10:16:50.065Z,14.31
2022-10-12T10:19:19.122Z,14.08
2022-10-12T10:21:45.971Z,14.30
2022-10-12T10:24:32.832Z,14.60
2022-10-12T10:27:04.928Z,14.57
2022-10-12T10:29:39.781Z,14.60
2022-10-12T10:32:24.280Z,14.34
2022-10-12T10:35:19.374Z,14.02
2022-10-12T10:37:51.705Z,14.21
2022-10-12T10:40:23.357Z,14.21
2022-10-12T10:42:52.924Z,14.51
2022-10-12T10:45:25.626Z,14.64
2022-10-12T10:47:56.566Z,14.83
2022-10-12T10:50:31.382Z,14.65
2022-10-12T10:53:00.935Z,14.70
2022-10-12T10:56:04.604Z,14.89
2022-10-12T10:58:46.036Z,14.86
2022-10-12T11:01:26.732Z,14.85
2022-10-12T11:03:59.474Z,14.78
2022-10-12T11:06:43.935Z,14.72
2022-10-12T11:09:17.746Z,14.85
2022-10-12T11:11:46.462Z,14.86
2022-10-12T11:14:22.299Z,15.05
2022-10-12T11:16:56.033Z,15.09
2022-10-12T11:19:48.870Z,14.90
2022-10-12T11:22:22.560Z,15.01
2022-10-12T11:25:03.825Z,15.06
2022-10-12T11:27:36.005Z,15.21
2022-10-12T11:30:10.061Z,15.38
2022-10-12T11:32:40.467Z,15.50
2022-10-12T11:35:08.090Z,15.43
2022-10-12T11:37:47.445Z,15.62
2022-10-12T11:40:47.862Z,15.65
2022-10-12T11:43:14.033Z,15.79
2022-10-12T11:45:43.755Z,15.93
2022-10-12T11:48:14.945Z,15.92
2022-10-12T11:50:45.309Z,15.78
2022-10-12T11:53:26.069Z,15.89
2022-10-12T11:56:16.187Z,16.01
2022-10-12T11:59:01.324Z,16.21
2022-10-12T12:01:43.883Z,16.08
2022-10-12T12:07:22.946Z,16.19
2022-10-12T12:09:51.174Z,16.13
2022-10-12T12:12:23.884Z,16.32
2022-10-12T12:14:53.166Z,16.05
2022-10-12T12:17:19.763Z,16.13
2022-10-12T12:19:51.543Z,16.32
2022-10-12T12:22:23.644Z,16.40
2022-10-12T12:25:05.529Z,16.53
2022-10-12T12:27:40.818Z,16.50
2022-10-12T12:30:19.615Z,16.26
2022-10-12T12:32:47.685Z,16.35
2022-10-12T12:35:26.068Z,16.37
2022-10-12T12:38:00.971Z,16.36
2022-10-12T12:40:27.762Z,16.46
2022-10-12T12:43:19.212Z,16.64
2022-10-12T12:46:00.321Z,16.79
2022-10-12T12:48:39.276Z,16.96
2022-10-12T12:51:35.317Z,16.92
2022-10-12T12:54:15.604Z,16.85
2022-10-12T12:56:51.303Z,16.97
2022-10-12T12:59:33.118Z,17.00
2022-10-12T13:02:42.825Z,17.18
2022-10-12T13:05:36.269Z,17.12
2022-10-12T13:08:14.928Z,17.15
2022-10-12T13:11:15.927Z,17.16
2022-10-12T13:13:50.613Z,16.69
2022-10-12T13:19:29.355Z,16.78
2022-10-12T13:21:56.705Z,16.91
2022-10-12T13:24:43.072Z,16.86
2022-10-12T13:27:20.114Z,16.80
2022-10-12T13:29:55.366Z,16.89
2022-10-12T13:32:33.090Z,17.00
2022-10-12T13:35:05.597Z,17.13
2022-10-12T13:37:35.024Z,17.03
2022-10-12T13:40:03.965Z,17.08
2022-10-12T13:42:32.693Z,17.07
2022-10-12T13:44:59.788Z,17.05
2022-10-12T13:47:28.766Z,17.06
2022-10-12T13:49:56.633Z,17.00
2022-10-12T13:52:32.579Z,16.78
2022-10-12T13:55:00.519Z,16.76
2022-10-12T13:57:36.148Z,16.89
2022-10-12T14:00:25.449Z,17.05
2022-10-12T14:03:00.305Z,17.27
2022-10-12T14:05:29.232Z,17.11
2022-10-12T14:08:02.107Z,17.01
2022-10-12T14:10:32.035Z,17.09
2022-10-12T14:12:58.879Z,17.10
2022-10-12T14:15:28.200Z,17.17
2022-10-12T14:17:55.026Z,17.25
2022-10-12T14:20:39.928Z,17.42
2022-10-12T14:23:14.629Z,17.49
2022-10-12T14:25:54.086Z,17.50
2022-10-12T14:28:29.057Z,17.53
2022-10-12T14:30:56.274Z,17.55
2022-10-12T14:33:25.623Z,17.73
2022-10-12T14:35:52.856Z,17.91
2022-10-12T14:38:41.706Z,17.90
2022-10-12T14:41:29.756Z,18.00
2022-10-12T14:44:26.972Z,18.09
2022-10-12T14:47:07.426Z,18.39
2022-10-12T14:49:44.061Z,18.13
2022-10-12T14:52:22.771Z,18.19
2022-10-12T14:54:53.856Z,18.07
2022-10-12T14:57:22.865Z,18.23
2022-10-12T14:59:49.856Z,18.44
2022-10-12T15:02:30.487Z,18.58
2022-10-12T15:04:57.713Z,18.59
2022-10-12T15:07:31.620Z,18.68
2022-10-12T15:09:58.631Z,18.61
2022-10-12T15:12:26.173Z,18.65
2022-10-12T15:14:55.580Z,18.68
2022-10-12T15:17:22.184Z,18.49
2022-10-12T15:19:49.896Z,18.72
2022-10-12T15:22:21.841Z,18.53
2022-10-12T15:24:49.245Z,18.55
2022-10-12T15:27:16.253Z,18.60
2022-10-12T15:29:43.081Z,18.49
2022-10-12T15:32:11.189Z,18.43
2022-10-12T15:34:37.957Z,18.23
2022-10-12T15:37:08.874Z,18.17
2022-10-12T15:39:36.142Z,17.97
2022-10-12T15:42:02.979Z,17.97
2022-10-12T15:44:30.681Z,17.95
2022-10-12T15:46:57.292Z,17.61
2022-10-12T15:49:24.536Z,17.28
2022-10-12T15:51:55.009Z,17.04
2022-10-12T15:54:22.230Z,16.96
2022-10-12T15:56:48.886Z,16.88
2022-10-12T15:59:16.935Z,16.84
2022-10-12T16:01:43.681Z,16.66
2022-10-12T16:04:13.012Z,16.71
2022-10-12T16:06:39.764Z,16.60
2022-10-12T16:09:06.479Z,16.54
2022-10-12T16:11:33.093Z,16.44
2022-10-12T16:13:59.804Z,16.23
2022-10-12T16:16:26.553Z,16.25
2022-10-12T16:18:54.104Z,16.19
2022-10-12T16:21:20.840Z,16.27
2022-10-12T16:23:47.533Z,16.24
2022-10-12T16:26:15.039Z,16.22
2022-10-12T16:28:42.289Z,16.10
2022-10-12T16:31:11.258Z,15.99
2022-10-12T16:33:38.116Z,15.83
2022-10-12T16:36:10.064Z,15.58
2022-10-12T16:38:37.012Z,15.55
2022-10-12T16:41:11.781Z,15.42
2022-10-12T16:43:38.565Z,15.39
2022-10-12T16:46:05.292Z,15.30
2022-10-12T16:48:32.310Z,15.14
2022-10-12T16:50:59.130Z,15.05
2022-10-12T16:53:25.865Z,14.86
2022-10-12T16:55:52.614Z,14.72
2022-10-12T16:58:20.350Z,14.67
2022-10-12T17:00:47.057Z,14.52
2022-10-12T17:03:14.291Z,14.48
2022-10-12T17:05:42.178Z,14.39
2022-10-12T17:08:13.975Z,14.23
2022-10-12T17:10:44.844Z,14.16
2022-10-12T17:13:13.591Z,13.88
2022-10-12T17:15:41.849Z,13.89
2022-10-12T17:18:09.221Z,14.03
2022-10-12T17:20:36.719Z,13.99
2022-10-12T17:23:03.516Z,13.90
2022-10-12T17:25:30.181Z,13.86
2022-10-12T17:27:56.840Z,13.79
2022-10-12T17:30:23.434Z,13.69
2022-10-12T17:32:50.065Z,13.59
2022-10-12T17:35:16.758Z,13.64
2022-10-12T17:37:43.381Z,13.53
2022-10-12T17:40:10.786Z,13.57
2022-10-12T17:42:37.465Z,13.60
2022-10-12T17:45:04.611Z,13.57
2022-10-12T17:47:31.250Z,13.53
2022-10-12T17:49:57.937Z,13.56
2022-10-12T17:52:24.670Z,13.58
2022-10-12T17:54:51.311Z,13.61
2022-10-12T17:57:18.360Z,13.50
2022-10-12T17:59:45.603Z,13.33
2022-10-12T18:02:12.357Z,13.21
2022-10-12T18:04:39.113Z,13.33
2022-10-12T18:07:06.740Z,13.20
2022-10-12T18:09:33.379Z,13.23
2022-10-12T18:12:00.062Z,13.25
2022-10-12T18:14:26.758Z,13.35
2022-10-12T18:16:54.430Z,13.31
2022-10-12T18:19:21.100Z,13.29
2022-10-12T18:21:47.755Z,13.32
2022-10-12T18:24:17.816Z,13.36
2022-10-12T18:26:47.149Z,13.25
2022-10-12T18:29:14.110Z,13.32
2022-10-12T18:31:40.748Z,13.37
2022-10-12T18:34:07.502Z,13.32
2022-10-12T18:36:34.394Z,13.35
2022-10-12T18:39:01.915Z,13.28
2022-10-12T18:41:28.725Z,13.27
2022-10-12T18:44:00.411Z,13.13
2022-10-12T18:46:28.801Z,13.14
2022-10-12T18:48:56.092Z,13.26
2022-10-12T18:51:26.345Z,13.17
2022-10-12T18:53:53.137Z,13.25
2022-10-12T18:56:20.116Z,13.15
2022-10-12T18:58:47.272Z,13.22
2022-10-12T19:01:17.825Z,13.21
2022-10-12T19:03:44.828Z,13.24
2022-10-12T19:06:14.380Z,13.24
2022-10-12T19:08:43.496Z,13.18
2022-10-12T19:11:10.980Z,13.19
2022-10-12T19:13:39.100Z,13.21
2022-10-12T19:16:14.664Z,13.25
2022-10-12T19:18:42.178Z,13.18
2022-10-12T19:21:14.247Z,13.20
2022-10-12T19:23:41.458Z,13.27
2022-10-12T19:26:11.227Z,13.26
2022-10-12T19:28:37.908Z,13.26
2022-10-12T19:31:13.257Z,13.18
2022-10-12T19:33:40.252Z,13.24
2022-10-12T19:36:08.419Z,13.20
2022-10-12T19:38:36.077Z,13.22
2022-10-12T19:41:02.914Z,13.25
2022-10-12T19:43:29.812Z,13.29
2022-10-12T19:45:56.442Z,13.33
2022-10-12T19:48:23.086Z,13.28
2022-10-12T19:51:01.555Z,13.26
2022-10-12T19:53:29.293Z,13.22
2022-10-12T19:56:04.560Z,13.33
2022-10-12T19:58:31.697Z,13.19
2022-10-12T20:01:08.096Z,13.28
2022-10-12T20:03:35.823Z,13.21
2022-10-12T20:06:06.231Z,13.24
2022-10-12T20:08:33.277Z,13.08
2022-10-12T20:11:00.206Z,13.27
2022-10-12T20:13:26.873Z,13.23
2022-10-12T20:15:54.664Z,13.30
2022-10-12T20:18:21.809Z,13.21
2022-10-12T20:20:48.725Z,13.20
2022-10-12T20:23:16.013Z,13.17
2022-10-12T20:25:44.151Z,12.96
2022-10-12T20:28:11.129Z,12.97
2022-10-12T20:30:38.038Z,13.14
2022-10-12T20:33:05.000Z,13.06
2022-10-12T20:35:31.750Z,13.18
2022-10-12T20:37:58.449Z,13.17
2022-10-12T20:40:25.175Z,13.09
2022-10-12T20:42:51.796Z,13.12
2022-10-12T20:45:18.941Z,13.15
2022-10-12T20:47:45.603Z,12.83
2022-10-12T20:50:13.013Z,13.05
2022-10-12T20:52:42.969Z,13.04
2022-10-12T20:55:09.936Z,13.00
2022-10-12T20:57:36.643Z,12.94
2022-10-12T21:00:03.948Z,12.89
2022-10-12T21:02:30.593Z,13.08
2022-10-12T21:04:57.281Z,12.96
2022-10-12T21:07:23.962Z,12.76
2022-10-12T21:09:51.325Z,12.79
2022-10-12T21:12:18.087Z,12.79
2022-10-12T21:14:44.949Z,12.89
2022-10-12T21:17:11.823Z,12.75
2022-10-12T21:19:38.501Z,12.76
2022-10-12T21:22:05.193Z,12.70
2022-10-12T21:24:31.964Z,12.67
2022-10-12T21:26:58.631Z,12.66
2022-10-12T21:29:25.364Z,12.74
2022-10-12T21:31:52.053Z,12.65
2022-10-12T21:34:18.729Z,12.60
2022-10-12T21:36:45.414Z,12.65
2022-10-12T21:39:14.380Z,12.70
2022-10-12T21:41:41.125Z,12.58
2022-10-12T21:44:07.850Z,12.77
2022-10-12T21:46:35.879Z,12.70
2022-10-12T21:49:04.325Z,12.86
2022-10-12T21:51:32.100Z,12.82
2022-10-12T21:53:59.091Z,12.86
2022-10-12T21:56:35.364Z,12.88
2022-10-12T21:59:03.846Z,12.80
2022-10-12T22:01:35.963Z,12.83
2022-10-12T22:04:05.732Z,12.82
2022-10-12T22:06:32.768Z,12.91
2022-10-12T22:09:02.193Z,12.83
2022-10-12T22:11:30.971Z,12.72
2022-10-12T22:14:04.111Z,12.64
2022-10-12T22:16:31.172Z,12.81
2022-10-12T22:19:02.641Z,12.91
2022-10-12T22:21:30.331Z,13.01
2022-10-12T22:23:57.084Z,12.91
2022-10-12T22:26:24.208Z,12.90
2022-10-12T22:28:50.988Z,12.83
2022-10-12T22:31:19.341Z,12.87
2022-10-12T22:33:46.330Z,12.97
2022-10-12T22:36:13.785Z,12.77
2022-10-12T22:38:40.600Z,12.83
2022-10-12T22:41:10.503Z,12.82
2022-10-12T22:43:37.749Z,12.88
2022-10-12T22:46:04.724Z,12.72
2022-10-12T22:48:32.017Z,12.65
2022-10-12T22:50:58.695Z,12.62
2022-10-12T22:53:25.937Z,12.63
2022-10-12T22:56:00.779Z,12.63
2022-10-12T22:58:28.264Z,12.67
2022-10-12T23:01:05.565Z,12.72
2022-10-12T23:03:33.294Z,12.53
2022-10-12T23:06:00.034Z,12.78
2022-10-12T23:08:27.151Z,12.87
2022-10-12T23:10:53.830Z,12.74
2022-10-12T23:13:20.570Z,12.56
2022-10-12T23:15:47.204Z,12.76
2022-10-12T23:18:15.193Z,12.81
2022-10-12T23:20:42.167Z,12.84
2022-10-12T23:23:08.965Z,12.89
2022-10-12T23:25:35.607Z,12.77
2022-10-12T23:28:02.238Z,12.82
2022-10-12T23:30:28.875Z,12.90
2022-10-12T23:32:55.517Z,12.83
2022-10-12T23:35:22.123Z,12.89
2022-10-12T23:37:48.773Z,13.02
2022-10-12T23:40:15.432Z,13.00
2022-10-12T23:42:42.072Z,12.95
2022-10-12T23:45:09.127Z,12.84
2022-10-12T23:47:35.760Z,12.68
2022-10-12T23:50:02.378Z,12.98
2022-10-12T23:52:29.260Z,12.98
2022-10-12T23:54:55.875Z,12.87
2022-10-12T23:57:45.511Z,12.89
